sensor_id;sensor_type;location;lat;lon;timestamp;P1;durP1;ratioP1;P2;durP2;ratioP2
4166;SDS011;2097;51.104;7.150;2022-10-30T00:00:46;61.27;;;3.00;;
4166;SDS011;2097;51.104;7.150;2022-10-30T00:03:14;61.20;;;2.80;;
4166;SDS011;2097;51.104;7.150;2022-10-30T00:05:43;61.57;;;2.83;;
4166;SDS011;2097;51.104;7.150;2022-10-30T00:08:10;61.13;;;3.00;;
4166;SDS011;2097;51.104;7.150;2022-10-30T00:10:40;60.97;;;3.07;;
4166;SDS011;2097;51.104;7.150;2022-10-30T00:13:08;61.10;;;2.83;;
4166;SDS011;2097;51.104;7.150;2022-10-30T00:15:35;61.50;;;2.83;;
4166;SDS011;2097;51.104;7.150;2022-10-30T00:18:02;61.07;;;3.00;;
4166;SDS011;2097;51.104;7.150;2022-10-30T00:20:29;60.97;;;2.57;;
4166;SDS011;2097;51.104;7.150;2022-10-30T00:22:56;61.07;;;3.00;;
4166;SDS011;2097;51.104;7.150;2022-10-30T00:25:23;61.60;;;3.10;;
4166;SDS011;2097;51.104;7.150;2022-10-30T00:27:51;60.77;;;2.77;;
4166;SDS011;2097;51.104;7.150;2022-10-30T00:30:18;61.10;;;3.00;;
4166;SDS011;2097;51.104;7.150;2022-10-30T00:32:44;60.70;;;2.70;;
4166;SDS011;2097;51.104;7.150;2022-10-30T00:35:11;60.87;;;2.93;;
4166;SDS011;2097;51.104;7.150;2022-10-30T00:37:38;61.20;;;3.00;;
4166;SDS011;2097;51.104;7.150;2022-10-30T00:40:05;61.07;;;2.70;;
4166;SDS011;2097;51.104;7.150;2022-10-30T00:42:33;60.97;;;2.87;;
4166;SDS011;2097;51.104;7.150;2022-10-30T00:45:01;60.83;;;2.93;;
4166;SDS011;2097;51.104;7.150;2022-10-30T00:47:29;60.93;;;2.83;;
4166;SDS011;2097;51.104;7.150;2022-10-30T00:50:00;60.90;;;3.00;;
4166;SDS011;2097;51.104;7.150;2022-10-30T00:52:32;60.80;;;2.80;;
4166;SDS011;2097;51.104;7.150;2022-10-30T00:55:03;61.10;;;3.23;;
4166;SDS011;2097;51.104;7.150;2022-10-30T00:57:33;61.93;;;3.37;;
4166;SDS011;2097;51.104;7.150;2022-10-30T01:00:04;61.20;;;3.20;;
4166;SDS011;2097;51.104;7.150;2022-10-30T01:02:33;61.00;;;3.07;;
4166;SDS011;2097;51.104;7.150;2022-10-30T01:04:59;60.77;;;3.00;;
4166;SDS011;2097;51.104;7.150;2022-10-30T01:07:28;61.37;;;3.03;;
4166;SDS011;2097;51.104;7.150;2022-10-30T01:09:55;61.17;;;3.03;;
4166;SDS011;2097;51.104;7.150;2022-10-30T01:12:21;62.83;;;3.17;;
4166;SDS011;2097;51.104;7.150;2022-10-30T01:14:49;60.93;;;3.03;;
4166;SDS011;2097;51.104;7.150;2022-10-30T01:17:31;61.17;;;2.90;;
4166;SDS011;2097;51.104;7.150;2022-10-30T01:20:22;60.90;;;2.90;;
4166;SDS011;2097;51.104;7.150;2022-10-30T01:23:05;61.03;;;3.13;;
4166;SDS011;2097;51.104;7.150;2022-10-30T01:25:47;60.93;;;3.13;;
4166;SDS011;2097;51.104;7.150;2022-10-30T01:28:24;61.03;;;3.07;;
4166;SDS011;2097;51.104;7.150;2022-10-30T01:31:07;60.77;;;2.70;;
4166;SDS011;2097;51.104;7.150;2022-10-30T01:33:48;60.80;;;2.60;;
4166;SDS011;2097;51.104;7.150;2022-10-30T01:36:24;60.50;;;2.60;;
4166;SDS011;2097;51.104;7.150;2022-10-30T01:38:55;60.77;;;2.77;;
4166;SDS011;2097;51.104;7.150;2022-10-30T01:41:25;61.60;;;2.77;;
4166;SDS011;2097;51.104;7.150;2022-10-30T01:43:53;60.90;;;2.50;;
4166;SDS011;2097;51.104;7.150;2022-10-30T01:46:30;60.63;;;2.67;;
4166;SDS011;2097;51.104;7.150;2022-10-30T01:49:11;61.67;;;2.77;;
4166;SDS011;2097;51.104;7.150;2022-10-30T01:51:54;60.60;;;2.50;;
4166;SDS011;2097;51.104;7.150;2022-10-30T01:54:31;60.47;;;2.40;;
4166;SDS011;2097;51.104;7.150;2022-10-30T01:57:10;60.80;;;2.60;;
4166;SDS011;2097;51.104;7.150;2022-10-30T01:59:43;60.27;;;2.50;;
4166;SDS011;2097;51.104;7.150;2022-10-30T02:02:14;60.60;;;2.40;;
4166;SDS011;2097;51.104;7.150;2022-10-30T02:04:42;60.90;;;2.60;;
4166;SDS011;2097;51.104;7.150;2022-10-30T02:07:09;61.20;;;2.57;;
4166;SDS011;2097;51.104;7.150;2022-10-30T02:09:37;60.30;;;2.50;;
4166;SDS011;2097;51.104;7.150;2022-10-30T02:12:05;60.67;;;2.53;;
4166;SDS011;2097;51.104;7.150;2022-10-30T02:14:33;60.67;;;2.40;;
4166;SDS011;2097;51.104;7.150;2022-10-30T02:17:04;60.60;;;2.50;;
4166;SDS011;2097;51.104;7.150;2022-10-30T02:19:32;60.67;;;2.80;;
4166;SDS011;2097;51.104;7.150;2022-10-30T02:22:00;60.67;;;2.50;;
4166;SDS011;2097;51.104;7.150;2022-10-30T02:24:27;60.57;;;2.60;;
4166;SDS011;2097;51.104;7.150;2022-10-30T02:26:55;61.07;;;2.77;;
4166;SDS011;2097;51.104;7.150;2022-10-30T02:29:21;60.70;;;2.60;;
4166;SDS011;2097;51.104;7.150;2022-10-30T02:31:48;60.70;;;2.50;;
4166;SDS011;2097;51.104;7.150;2022-10-30T02:34:15;60.83;;;2.57;;
4166;SDS011;2097;51.104;7.150;2022-10-30T02:36:42;60.60;;;2.77;;
4166;SDS011;2097;51.104;7.150;2022-10-30T02:39:10;61.10;;;2.77;;
4166;SDS011;2097;51.104;7.150;2022-10-30T02:41:37;61.00;;;3.17;;
4166;SDS011;2097;51.104;7.150;2022-10-30T02:44:04;60.80;;;2.80;;
4166;SDS011;2097;51.104;7.150;2022-10-30T02:46:31;61.17;;;2.70;;
4166;SDS011;2097;51.104;7.150;2022-10-30T02:48:58;60.73;;;3.07;;
4166;SDS011;2097;51.104;7.150;2022-10-30T02:51:25;61.60;;;2.77;;
4166;SDS011;2097;51.104;7.150;2022-10-30T02:53:51;60.37;;;2.83;;
4166;SDS011;2097;51.104;7.150;2022-10-30T02:56:19;60.97;;;3.30;;
4166;SDS011;2097;51.104;7.150;2022-10-30T02:58:46;61.27;;;2.73;;
4166;SDS011;2097;51.104;7.150;2022-10-30T03:01:13;60.50;;;2.70;;
4166;SDS011;2097;51.104;7.150;2022-10-30T03:03:42;61.37;;;3.00;;
4166;SDS011;2097;51.104;7.150;2022-10-30T03:06:10;61.47;;;2.87;;
4166;SDS011;2097;51.104;7.150;2022-10-30T03:08:39;64.80;;;3.40;;
4166;SDS011;2097;51.104;7.150;2022-10-30T03:11:07;60.70;;;3.00;;
4166;SDS011;2097;51.104;7.150;2022-10-30T03:13:36;61.67;;;3.00;;
4166;SDS011;2097;51.104;7.150;2022-10-30T03:16:05;60.60;;;2.70;;
4166;SDS011;2097;51.104;7.150;2022-10-30T03:18:34;61.70;;;3.20;;
4166;SDS011;2097;51.104;7.150;2022-10-30T03:21:02;61.90;;;3.50;;
4166;SDS011;2097;51.104;7.150;2022-10-30T03:23:30;61.17;;;3.40;;
4166;SDS011;2097;51.104;7.150;2022-10-30T03:25:57;61.80;;;3.50;;
4166;SDS011;2097;51.104;7.150;2022-10-30T03:28:25;60.90;;;3.23;;
4166;SDS011;2097;51.104;7.150;2022-10-30T03:30:58;60.67;;;2.87;;
4166;SDS011;2097;51.104;7.150;2022-10-30T03:33:25;61.10;;;3.10;;
4166;SDS011;2097;51.104;7.150;2022-10-30T03:35:52;61.77;;;2.53;;
4166;SDS011;2097;51.104;7.150;2022-10-30T03:38:19;60.87;;;2.50;;
4166;SDS011;2097;51.104;7.150;2022-10-30T03:40:46;60.40;;;2.43;;
4166;SDS011;2097;51.104;7.150;2022-10-30T03:43:13;62.17;;;2.90;;
4166;SDS011;2097;51.104;7.150;2022-10-30T03:45:44;61.00;;;2.80;;
4166;SDS011;2097;51.104;7.150;2022-10-30T03:48:13;61.10;;;2.90;;
4166;SDS011;2097;51.104;7.150;2022-10-30T03:50:40;61.23;;;2.90;;
4166;SDS011;2097;51.104;7.150;2022-10-30T03:53:06;60.77;;;2.50;;
4166;SDS011;2097;51.104;7.150;2022-10-30T03:55:33;61.10;;;2.93;;
4166;SDS011;2097;51.104;7.150;2022-10-30T03:58:00;61.07;;;2.80;;
4166;SDS011;2097;51.104;7.150;2022-10-30T04:00:27;61.03;;;2.53;;
4166;SDS011;2097;51.104;7.150;2022-10-30T04:02:53;61.37;;;2.60;;
4166;SDS011;2097;51.104;7.150;2022-10-30T04:05:22;60.50;;;2.43;;
4166;SDS011;2097;51.104;7.150;2022-10-30T04:07:53;60.87;;;2.37;;
4166;SDS011;2097;51.104;7.150;2022-10-30T04:10:21;61.30;;;2.73;;
4166;SDS011;2097;51.104;7.150;2022-10-30T04:12:49;61.50;;;2.90;;
4166;SDS011;2097;51.104;7.150;2022-10-30T04:15:17;60.90;;;2.77;;
4166;SDS011;2097;51.104;7.150;2022-10-30T04:17:47;61.10;;;2.77;;
4166;SDS011;2097;51.104;7.150;2022-10-30T04:20:14;61.27;;;2.53;;
4166;SDS011;2097;51.104;7.150;2022-10-30T04:22:43;60.70;;;2.43;;
4166;SDS011;2097;51.104;7.150;2022-10-30T04:25:10;60.70;;;2.90;;
4166;SDS011;2097;51.104;7.150;2022-10-30T04:27:39;63.00;;;2.80;;
4166;SDS011;2097;51.104;7.150;2022-10-30T04:30:07;61.60;;;2.70;;
4166;SDS011;2097;51.104;7.150;2022-10-30T04:32:35;60.70;;;2.47;;
4166;SDS011;2097;51.104;7.150;2022-10-30T04:35:02;60.93;;;2.60;;
4166;SDS011;2097;51.104;7.150;2022-10-30T04:37:29;60.40;;;2.77;;
4166;SDS011;2097;51.104;7.150;2022-10-30T04:39:57;60.77;;;2.40;;
4166;SDS011;2097;51.104;7.150;2022-10-30T04:42:24;60.80;;;2.80;;
4166;SDS011;2097;51.104;7.150;2022-10-30T04:44:51;61.37;;;2.77;;
4166;SDS011;2097;51.104;7.150;2022-10-30T04:47:17;60.80;;;2.90;;
4166;SDS011;2097;51.104;7.150;2022-10-30T04:49:44;60.77;;;2.53;;
4166;SDS011;2097;51.104;7.150;2022-10-30T04:52:11;60.60;;;2.50;;
4166;SDS011;2097;51.104;7.150;2022-10-30T04:54:37;61.20;;;2.70;;
4166;SDS011;2097;51.104;7.150;2022-10-30T04:57:06;60.97;;;2.80;;
4166;SDS011;2097;51.104;7.150;2022-10-30T04:59:33;61.17;;;2.67;;
4166;SDS011;2097;51.104;7.150;2022-10-30T05:01:59;61.37;;;2.90;;
4166;SDS011;2097;51.104;7.150;2022-10-30T05:04:26;61.80;;;3.00;;
4166;SDS011;2097;51.104;7.150;2022-10-30T05:06:53;60.27;;;2.57;;
4166;SDS011;2097;51.104;7.150;2022-10-30T05:09:19;61.00;;;3.13;;
4166;SDS011;2097;51.104;7.150;2022-10-30T05:11:46;60.83;;;2.97;;
4166;SDS011;2097;51.104;7.150;2022-10-30T05:14:14;62.70;;;3.03;;
4166;SDS011;2097;51.104;7.150;2022-10-30T05:16:41;61.13;;;2.87;;
4166;SDS011;2097;51.104;7.150;2022-10-30T05:19:08;60.80;;;2.80;;
4166;SDS011;2097;51.104;7.150;2022-10-30T05:21:34;60.60;;;2.87;;
4166;SDS011;2097;51.104;7.150;2022-10-30T05:24:01;60.77;;;3.03;;
4166;SDS011;2097;51.104;7.150;2022-10-30T05:26:28;60.40;;;2.93;;
4166;SDS011;2097;51.104;7.150;2022-10-30T05:28:55;62.23;;;3.17;;
4166;SDS011;2097;51.104;7.150;2022-10-30T05:31:23;61.90;;;3.17;;
4166;SDS011;2097;51.104;7.150;2022-10-30T05:33:49;61.83;;;3.40;;
4166;SDS011;2097;51.104;7.150;2022-10-30T05:36:16;61.17;;;3.13;;
4166;SDS011;2097;51.104;7.150;2022-10-30T05:38:43;61.17;;;3.30;;
4166;SDS011;2097;51.104;7.150;2022-10-30T05:41:10;60.63;;;3.23;;
4166;SDS011;2097;51.104;7.150;2022-10-30T05:43:37;60.93;;;3.07;;
4166;SDS011;2097;51.104;7.150;2022-10-30T05:46:04;60.97;;;3.10;;
4166;SDS011;2097;51.104;7.150;2022-10-30T05:48:32;61.07;;;3.00;;
4166;SDS011;2097;51.104;7.150;2022-10-30T05:50:58;61.07;;;3.37;;
4166;SDS011;2097;51.104;7.150;2022-10-30T05:53:25;60.80;;;3.10;;
4166;SDS011;2097;51.104;7.150;2022-10-30T05:55:54;60.80;;;3.23;;
4166;SDS011;2097;51.104;7.150;2022-10-30T05:58:21;61.67;;;3.03;;
4166;SDS011;2097;51.104;7.150;2022-10-30T06:00:48;61.30;;;3.37;;
4166;SDS011;2097;51.104;7.150;2022-10-30T06:03:15;61.30;;;3.30;;
4166;SDS011;2097;51.104;7.150;2022-10-30T06:05:44;61.63;;;3.23;;
4166;SDS011;2097;51.104;7.150;2022-10-30T06:08:14;60.93;;;3.50;;
4166;SDS011;2097;51.104;7.150;2022-10-30T06:10:41;60.87;;;3.10;;
4166;SDS011;2097;51.104;7.150;2022-10-30T06:13:09;60.60;;;3.13;;
4166;SDS011;2097;51.104;7.150;2022-10-30T06:15:36;63.83;;;3.20;;
4166;SDS011;2097;51.104;7.150;2022-10-30T06:18:03;60.63;;;2.70;;
4166;SDS011;2097;51.104;7.150;2022-10-30T06:20:30;60.87;;;3.13;;
4166;SDS011;2097;51.104;7.150;2022-10-30T06:22:58;61.13;;;3.03;;
4166;SDS011;2097;51.104;7.150;2022-10-30T06:25:27;60.67;;;3.00;;
4166;SDS011;2097;51.104;7.150;2022-10-30T06:27:55;60.70;;;2.80;;
4166;SDS011;2097;51.104;7.150;2022-10-30T06:30:22;60.37;;;2.80;;
4166;SDS011;2097;51.104;7.150;2022-10-30T06:32:49;61.07;;;3.27;;
4166;SDS011;2097;51.104;7.150;2022-10-30T06:35:22;61.10;;;3.27;;
4166;SDS011;2097;51.104;7.150;2022-10-30T06:37:49;61.23;;;3.57;;
4166;SDS011;2097;51.104;7.150;2022-10-30T06:40:19;61.97;;;3.47;;
4166;SDS011;2097;51.104;7.150;2022-10-30T06:42:46;60.50;;;3.13;;
4166;SDS011;2097;51.104;7.150;2022-10-30T06:45:15;60.83;;;3.33;;
4166;SDS011;2097;51.104;7.150;2022-10-30T06:47:43;60.97;;;3.10;;
4166;SDS011;2097;51.104;7.150;2022-10-30T06:50:12;60.80;;;2.93;;
4166;SDS011;2097;51.104;7.150;2022-10-30T06:52:40;60.97;;;3.30;;
4166;SDS011;2097;51.104;7.150;2022-10-30T06:55:07;60.63;;;2.87;;
4166;SDS011;2097;51.104;7.150;2022-10-30T06:57:37;60.57;;;2.77;;
4166;SDS011;2097;51.104;7.150;2022-10-30T07:00:04;60.70;;;2.83;;
4166;SDS011;2097;51.104;7.150;2022-10-30T07:02:32;60.40;;;2.90;;
4166;SDS011;2097;51.104;7.150;2022-10-30T07:04:59;60.70;;;3.10;;
4166;SDS011;2097;51.104;7.150;2022-10-30T07:07:27;60.93;;;2.90;;
4166;SDS011;2097;51.104;7.150;2022-10-30T07:09:54;60.17;;;2.47;;
4166;SDS011;2097;51.104;7.150;2022-10-30T07:12:21;60.37;;;2.43;;
4166;SDS011;2097;51.104;7.150;2022-10-30T07:14:49;60.63;;;2.67;;
4166;SDS011;2097;51.104;7.150;2022-10-30T07:17:15;60.53;;;2.63;;
4166;SDS011;2097;51.104;7.150;2022-10-30T07:19:42;60.87;;;2.67;;
4166;SDS011;2097;51.104;7.150;2022-10-30T07:22:09;60.30;;;2.47;;
4166;SDS011;2097;51.104;7.150;2022-10-30T07:24:36;60.63;;;2.50;;
4166;SDS011;2097;51.104;7.150;2022-10-30T07:27:03;60.30;;;2.63;;
4166;SDS011;2097;51.104;7.150;2022-10-30T07:29:30;60.30;;;2.07;;
4166;SDS011;2097;51.104;7.150;2022-10-30T07:31:58;60.30;;;2.60;;
4166;SDS011;2097;51.104;7.150;2022-10-30T07:34:25;60.80;;;2.57;;
4166;SDS011;2097;51.104;7.150;2022-10-30T07:36:52;60.97;;;2.70;;
4166;SDS011;2097;51.104;7.150;2022-10-30T07:39:18;60.60;;;2.77;;
4166;SDS011;2097;51.104;7.150;2022-10-30T07:41:47;60.63;;;2.70;;
4166;SDS011;2097;51.104;7.150;2022-10-30T07:44:14;60.60;;;2.47;;
4166;SDS011;2097;51.104;7.150;2022-10-30T07:46:41;61.67;;;2.73;;
4166;SDS011;2097;51.104;7.150;2022-10-30T07:49:10;60.93;;;2.70;;
4166;SDS011;2097;51.104;7.150;2022-10-30T07:51:36;61.40;;;2.90;;
4166;SDS011;2097;51.104;7.150;2022-10-30T07:54:03;60.97;;;2.97;;
4166;SDS011;2097;51.104;7.150;2022-10-30T07:56:30;60.87;;;2.73;;
4166;SDS011;2097;51.104;7.150;2022-10-30T07:58:56;61.80;;;2.73;;
4166;SDS011;2097;51.104;7.150;2022-10-30T08:01:23;61.07;;;2.70;;
4166;SDS011;2097;51.104;7.150;2022-10-30T08:03:50;60.60;;;2.67;;
4166;SDS011;2097;51.104;7.150;2022-10-30T08:06:18;60.87;;;3.00;;
4166;SDS011;2097;51.104;7.150;2022-10-30T08:08:45;61.17;;;2.50;;
4166;SDS011;2097;51.104;7.150;2022-10-30T08:11:11;60.30;;;2.43;;
4166;SDS011;2097;51.104;7.150;2022-10-30T08:13:38;60.77;;;2.70;;
4166;SDS011;2097;51.104;7.150;2022-10-30T08:16:05;60.97;;;2.77;;
4166;SDS011;2097;51.104;7.150;2022-10-30T08:18:32;60.97;;;3.13;;
4166;SDS011;2097;51.104;7.150;2022-10-30T08:20:59;61.20;;;3.67;;
4166;SDS011;2097;51.104;7.150;2022-10-30T08:23:27;61.90;;;3.77;;
4166;SDS011;2097;51.104;7.150;2022-10-30T08:25:55;60.70;;;3.33;;
4166;SDS011;2097;51.104;7.150;2022-10-30T08:28:24;60.77;;;3.13;;
4166;SDS011;2097;51.104;7.150;2022-10-30T08:30:51;61.07;;;2.77;;
4166;SDS011;2097;51.104;7.150;2022-10-30T08:33:17;60.80;;;2.60;;
4166;SDS011;2097;51.104;7.150;2022-10-30T08:35:47;60.67;;;2.90;;
4166;SDS011;2097;51.104;7.150;2022-10-30T08:38:15;61.70;;;3.10;;
4166;SDS011;2097;51.104;7.150;2022-10-30T08:40:43;62.40;;;3.63;;
4166;SDS011;2097;51.104;7.150;2022-10-30T08:43:10;60.80;;;2.93;;
4166;SDS011;2097;51.104;7.150;2022-10-30T08:45:37;61.47;;;3.33;;
4166;SDS011;2097;51.104;7.150;2022-10-30T08:48:04;61.17;;;3.20;;
4166;SDS011;2097;51.104;7.150;2022-10-30T08:50:32;60.67;;;3.10;;
4166;SDS011;2097;51.104;7.150;2022-10-30T08:53:00;61.70;;;2.97;;
4166;SDS011;2097;51.104;7.150;2022-10-30T08:55:27;60.87;;;2.97;;
4166;SDS011;2097;51.104;7.150;2022-10-30T08:57:55;60.73;;;3.10;;
4166;SDS011;2097;51.104;7.150;2022-10-30T09:00:22;62.90;;;2.90;;
4166;SDS011;2097;51.104;7.150;2022-10-30T09:02:49;60.70;;;3.00;;
4166;SDS011;2097;51.104;7.150;2022-10-30T09:05:16;60.90;;;2.87;;
4166;SDS011;2097;51.104;7.150;2022-10-30T09:07:43;60.77;;;2.77;;
4166;SDS011;2097;51.104;7.150;2022-10-30T09:10:12;60.77;;;2.77;;
4166;SDS011;2097;51.104;7.150;2022-10-30T09:12:39;60.67;;;2.50;;
4166;SDS011;2097;51.104;7.150;2022-10-30T09:15:08;60.80;;;2.70;;
4166;SDS011;2097;51.104;7.150;2022-10-30T09:17:35;61.93;;;3.07;;
4166;SDS011;2097;51.104;7.150;2022-10-30T09:20:02;62.10;;;2.83;;
4166;SDS011;2097;51.104;7.150;2022-10-30T09:22:30;60.77;;;2.70;;
4166;SDS011;2097;51.104;7.150;2022-10-30T09:24:56;60.87;;;2.67;;
4166;SDS011;2097;51.104;7.150;2022-10-30T09:27:23;62.67;;;2.87;;
4166;SDS011;2097;51.104;7.150;2022-10-30T09:29:51;60.53;;;2.73;;
4166;SDS011;2097;51.104;7.150;2022-10-30T09:32:19;61.30;;;3.10;;
4166;SDS011;2097;51.104;7.150;2022-10-30T09:34:46;60.67;;;2.93;;
4166;SDS011;2097;51.104;7.150;2022-10-30T09:37:13;62.10;;;3.23;;
4166;SDS011;2097;51.104;7.150;2022-10-30T09:39:40;61.37;;;3.40;;
4166;SDS011;2097;51.104;7.150;2022-10-30T09:42:10;60.80;;;3.30;;
4166;SDS011;2097;51.104;7.150;2022-10-30T09:45:01;60.70;;;2.67;;
4166;SDS011;2097;51.104;7.150;2022-10-30T09:47:40;60.87;;;3.00;;
4166;SDS011;2097;51.104;7.150;2022-10-30T09:50:17;60.73;;;2.90;;
4166;SDS011;2097;51.104;7.150;2022-10-30T09:52:53;60.37;;;2.60;;
4166;SDS011;2097;51.104;7.150;2022-10-30T09:55:33;60.80;;;2.60;;
4166;SDS011;2097;51.104;7.150;2022-10-30T09:58:10;61.80;;;2.93;;
4166;SDS011;2097;51.104;7.150;2022-10-30T10:00:45;60.97;;;3.33;;
4166;SDS011;2097;51.104;7.150;2022-10-30T10:03:23;61.43;;;3.53;;
4166;SDS011;2097;51.104;7.150;2022-10-30T10:05:58;61.10;;;3.87;;
4166;SDS011;2097;51.104;7.150;2022-10-30T10:08:27;61.17;;;4.07;;
4166;SDS011;2097;51.104;7.150;2022-10-30T10:11:00;62.37;;;5.17;;
4166;SDS011;2097;51.104;7.150;2022-10-30T10:13:32;61.97;;;4.00;;
4166;SDS011;2097;51.104;7.150;2022-10-30T10:16:07;61.23;;;3.20;;
4166;SDS011;2097;51.104;7.150;2022-10-30T10:18:44;61.10;;;2.83;;
4166;SDS011;2097;51.104;7.150;2022-10-30T10:21:14;61.17;;;3.00;;
4166;SDS011;2097;51.104;7.150;2022-10-30T10:23:49;61.40;;;3.40;;
4166;SDS011;2097;51.104;7.150;2022-10-30T10:26:26;61.63;;;3.27;;
4166;SDS011;2097;51.104;7.150;2022-10-30T10:31:49;61.40;;;3.40;;
4166;SDS011;2097;51.104;7.150;2022-10-30T10:34:44;61.17;;;3.67;;
4166;SDS011;2097;51.104;7.150;2022-10-30T10:37:20;61.57;;;3.60;;
4166;SDS011;2097;51.104;7.150;2022-10-30T10:40:00;61.20;;;3.40;;
4166;SDS011;2097;51.104;7.150;2022-10-30T10:42:43;61.20;;;3.30;;
4166;SDS011;2097;51.104;7.150;2022-10-30T10:45:23;61.30;;;3.40;;
4166;SDS011;2097;51.104;7.150;2022-10-30T10:51:00;60.87;;;3.40;;
4166;SDS011;2097;51.104;7.150;2022-10-30T10:53:32;61.30;;;2.80;;
4166;SDS011;2097;51.104;7.150;2022-10-30T10:56:05;61.37;;;2.87;;
4166;SDS011;2097;51.104;7.150;2022-10-30T10:58:34;61.20;;;2.80;;
4166;SDS011;2097;51.104;7.150;2022-10-30T11:01:11;61.40;;;2.70;;
4166;SDS011;2097;51.104;7.150;2022-10-30T11:03:44;61.80;;;2.60;;
4166;SDS011;2097;51.104;7.150;2022-10-30T11:06:19;61.20;;;2.70;;
4166;SDS011;2097;51.104;7.150;2022-10-30T11:08:47;61.37;;;2.80;;
4166;SDS011;2097;51.104;7.150;2022-10-30T11:11:15;62.00;;;3.30;;
4166;SDS011;2097;51.104;7.150;2022-10-30T11:13:42;61.70;;;3.70;;
4166;SDS011;2097;51.104;7.150;2022-10-30T11:16:13;61.53;;;3.40;;
4166;SDS011;2097;51.104;7.150;2022-10-30T11:18:48;61.90;;;3.20;;
4166;SDS011;2097;51.104;7.150;2022-10-30T11:21:20;61.47;;;3.30;;
4166;SDS011;2097;51.104;7.150;2022-10-30T11:23:48;61.97;;;3.17;;
4166;SDS011;2097;51.104;7.150;2022-10-30T11:26:24;61.47;;;3.10;;
4166;SDS011;2097;51.104;7.150;2022-10-30T11:28:53;61.27;;;3.17;;
4166;SDS011;2097;51.104;7.150;2022-10-30T11:31:22;61.17;;;3.00;;
4166;SDS011;2097;51.104;7.150;2022-10-30T11:33:51;62.20;;;3.30;;
4166;SDS011;2097;51.104;7.150;2022-10-30T11:36:23;60.77;;;3.63;;
4166;SDS011;2097;51.104;7.150;2022-10-30T11:38:53;60.90;;;3.90;;
4166;SDS011;2097;51.104;7.150;2022-10-30T11:41:34;61.30;;;4.10;;
4166;SDS011;2097;51.104;7.150;2022-10-30T11:44:01;62.37;;;4.33;;
4166;SDS011;2097;51.104;7.150;2022-10-30T11:46:28;61.77;;;4.57;;
4166;SDS011;2097;51.104;7.150;2022-10-30T11:48:54;62.07;;;4.23;;
4166;SDS011;2097;51.104;7.150;2022-10-30T11:51:32;60.80;;;4.10;;
4166;SDS011;2097;51.104;7.150;2022-10-30T11:54:02;61.73;;;3.77;;
4166;SDS011;2097;51.104;7.150;2022-10-30T11:56:30;61.57;;;3.27;;
4166;SDS011;2097;51.104;7.150;2022-10-30T11:59:00;62.17;;;3.67;;
4166;SDS011;2097;51.104;7.150;2022-10-30T12:01:29;61.80;;;3.60;;
4166;SDS011;2097;51.104;7.150;2022-10-30T12:03:58;61.33;;;3.00;;
4166;SDS011;2097;51.104;7.150;2022-10-30T12:06:41;62.20;;;3.40;;
4166;SDS011;2097;51.104;7.150;2022-10-30T12:09:11;61.57;;;3.20;;
4166;SDS011;2097;51.104;7.150;2022-10-30T12:11:40;61.37;;;3.30;;
4166;SDS011;2097;51.104;7.150;2022-10-30T12:14:13;61.57;;;3.13;;
4166;SDS011;2097;51.104;7.150;2022-10-30T12:16:44;61.63;;;3.50;;
4166;SDS011;2097;51.104;7.150;2022-10-30T12:19:12;62.10;;;3.70;;
4166;SDS011;2097;51.104;7.150;2022-10-30T12:21:43;62.37;;;3.90;;
4166;SDS011;2097;51.104;7.150;2022-10-30T12:24:14;61.83;;;3.70;;
4166;SDS011;2097;51.104;7.150;2022-10-30T12:26:46;63.17;;;3.70;;
4166;SDS011;2097;51.104;7.150;2022-10-30T12:29:16;61.73;;;3.00;;
4166;SDS011;2097;51.104;7.150;2022-10-30T12:31:48;61.20;;;3.00;;
4166;SDS011;2097;51.104;7.150;2022-10-30T12:34:27;61.40;;;3.13;;
4166;SDS011;2097;51.104;7.150;2022-10-30T12:37:02;61.80;;;3.00;;
4166;SDS011;2097;51.104;7.150;2022-10-30T12:39:39;61.50;;;2.77;;
4166;SDS011;2097;51.104;7.150;2022-10-30T12:42:18;61.90;;;2.97;;
4166;SDS011;2097;51.104;7.150;2022-10-30T12:44:47;61.80;;;3.50;;
4166;SDS011;2097;51.104;7.150;2022-10-30T12:47:19;61.77;;;3.13;;
4166;SDS011;2097;51.104;7.150;2022-10-30T12:49:53;61.73;;;3.47;;
4166;SDS011;2097;51.104;7.150;2022-10-30T12:52:30;62.40;;;3.30;;
4166;SDS011;2097;51.104;7.150;2022-10-30T12:55:01;62.00;;;3.13;;
4166;SDS011;2097;51.104;7.150;2022-10-30T12:57:34;62.37;;;3.37;;
4166;SDS011;2097;51.104;7.150;2022-10-30T13:00:06;61.60;;;3.60;;
4166;SDS011;2097;51.104;7.150;2022-10-30T13:02:39;61.83;;;3.37;;
4166;SDS011;2097;51.104;7.150;2022-10-30T13:05:17;62.47;;;4.47;;
4166;SDS011;2097;51.104;7.150;2022-10-30T13:07:54;62.97;;;3.70;;
4166;SDS011;2097;51.104;7.150;2022-10-30T13:10:28;62.10;;;3.50;;
4166;SDS011;2097;51.104;7.150;2022-10-30T13:13:00;62.03;;;3.80;;
4166;SDS011;2097;51.104;7.150;2022-10-30T13:15:32;62.37;;;3.67;;
4166;SDS011;2097;51.104;7.150;2022-10-30T13:18:08;62.23;;;3.70;;
4166;SDS011;2097;51.104;7.150;2022-10-30T13:20:41;61.83;;;3.40;;
4166;SDS011;2097;51.104;7.150;2022-10-30T13:23:16;61.80;;;3.30;;
4166;SDS011;2097;51.104;7.150;2022-10-30T13:25:54;62.03;;;3.40;;
4166;SDS011;2097;51.104;7.150;2022-10-30T13:28:27;61.80;;;3.40;;
4166;SDS011;2097;51.104;7.150;2022-10-30T13:31:01;61.87;;;3.40;;
4166;SDS011;2097;51.104;7.150;2022-10-30T13:33:38;61.83;;;3.20;;
4166;SDS011;2097;51.104;7.150;2022-10-30T13:36:14;62.00;;;3.10;;
4166;SDS011;2097;51.104;7.150;2022-10-30T13:38:50;61.50;;;3.10;;
4166;SDS011;2097;51.104;7.150;2022-10-30T13:41:27;61.77;;;3.10;;
4166;SDS011;2097;51.104;7.150;2022-10-30T13:44:07;61.77;;;3.00;;
4166;SDS011;2097;51.104;7.150;2022-10-30T13:46:52;61.30;;;3.00;;
4166;SDS011;2097;51.104;7.150;2022-10-30T13:49:41;61.27;;;3.00;;
4166;SDS011;2097;51.104;7.150;2022-10-30T13:52:21;61.50;;;3.13;;
4166;SDS011;2097;51.104;7.150;2022-10-30T13:54:52;61.37;;;2.70;;
4166;SDS011;2097;51.104;7.150;2022-10-30T13:57:26;61.70;;;3.17;;
4166;SDS011;2097;51.104;7.150;2022-10-30T14:00:01;61.33;;;2.63;;
4166;SDS011;2097;51.104;7.150;2022-10-30T14:02:38;61.17;;;2.80;;
4166;SDS011;2097;51.104;7.150;2022-10-30T14:05:20;61.30;;;2.47;;
4166;SDS011;2097;51.104;7.150;2022-10-30T14:07:55;61.67;;;2.93;;
4166;SDS011;2097;51.104;7.150;2022-10-30T14:10:41;63.70;;;2.70;;
4166;SDS011;2097;51.104;7.150;2022-10-30T14:13:20;61.50;;;2.80;;
4166;SDS011;2097;51.104;7.150;2022-10-30T14:15:52;64.00;;;3.20;;
4166;SDS011;2097;51.104;7.150;2022-10-30T14:18:38;62.10;;;3.13;;
4166;SDS011;2097;51.104;7.150;2022-10-30T14:21:28;61.57;;;2.80;;
4166;SDS011;2097;51.104;7.150;2022-10-30T14:24:00;61.30;;;2.90;;
4166;SDS011;2097;51.104;7.150;2022-10-30T14:26:30;61.57;;;2.80;;
4166;SDS011;2097;51.104;7.150;2022-10-30T14:29:00;61.20;;;2.80;;
4166;SDS011;2097;51.104;7.150;2022-10-30T14:34:59;61.13;;;2.80;;
4166;SDS011;2097;51.104;7.150;2022-10-30T14:43:13;62.07;;;3.00;;
4166;SDS011;2097;51.104;7.150;2022-10-30T14:45:49;61.90;;;3.67;;
4166;SDS011;2097;51.104;7.150;2022-10-30T14:48:23;61.90;;;3.57;;
4166;SDS011;2097;51.104;7.150;2022-10-30T14:50:58;61.77;;;3.40;;
4166;SDS011;2097;51.104;7.150;2022-10-30T14:53:36;61.60;;;3.20;;
4166;SDS011;2097;51.104;7.150;2022-10-30T14:56:17;61.47;;;3.30;;
4166;SDS011;2097;51.104;7.150;2022-10-30T14:59:17;61.27;;;3.40;;
4166;SDS011;2097;51.104;7.150;2022-10-30T15:01:49;61.40;;;3.90;;
4166;SDS011;2097;51.104;7.150;2022-10-30T15:04:21;61.37;;;3.40;;
4166;SDS011;2097;51.104;7.150;2022-10-30T15:06:59;63.27;;;3.97;;
4166;SDS011;2097;51.104;7.150;2022-10-30T15:09:44;61.80;;;3.43;;
4166;SDS011;2097;51.104;7.150;2022-10-30T15:12:41;61.67;;;3.20;;
4166;SDS011;2097;51.104;7.150;2022-10-30T15:15:20;61.53;;;3.30;;
4166;SDS011;2097;51.104;7.150;2022-10-30T15:17:48;61.80;;;3.00;;
4166;SDS011;2097;51.104;7.150;2022-10-30T15:20:18;61.17;;;2.90;;
4166;SDS011;2097;51.104;7.150;2022-10-30T15:22:47;61.47;;;2.77;;
4166;SDS011;2097;51.104;7.150;2022-10-30T15:25:18;61.33;;;2.97;;
4166;SDS011;2097;51.104;7.150;2022-10-30T15:27:48;61.40;;;3.50;;
4166;SDS011;2097;51.104;7.150;2022-10-30T15:30:18;61.20;;;3.13;;
4166;SDS011;2097;51.104;7.150;2022-10-30T15:32:47;61.20;;;3.07;;
4166;SDS011;2097;51.104;7.150;2022-10-30T15:35:15;62.60;;;2.90;;